createdAt,value
2023-05-12T00:00:57.209Z,54.27
2023-05-12T00:01:57.159Z,53.72
2023-05-12T00:02:57.231Z,54.11
2023-05-12T00:03:57.359Z,54.30
2023-05-12T00:04:57.820Z,54.27
2023-05-12T00:05:57.151Z,54.30
2023-05-12T00:06:57.120Z,54.21
2023-05-12T00:07:57.140Z,54.30
2023-05-12T00:08:57.133Z,54.17
2023-05-12T00:09:57.175Z,54.17
2023-05-12T00:10:57.122Z,54.37
2023-05-12T00:11:57.113Z,54.27
2023-05-12T00:12:57.119Z,54.66
2023-05-12T00:13:57.219Z,54.46
2023-05-12T00:14:57.135Z,54.66
2023-05-12T00:15:57.173Z,54.66
2023-05-12T00:16:57.131Z,54.37
2023-05-12T00:17:57.149Z,54.27
2023-05-12T00:18:57.194Z,54.08
2023-05-12T00:19:57.108Z,53.60
2023-05-12T00:20:57.155Z,54.27
2023-05-12T00:21:57.796Z,54.17
2023-05-12T00:22:57.116Z,53.70
2023-05-12T00:23:57.113Z,53.60
2023-05-12T00:24:57.115Z,53.41
2023-05-12T00:25:57.111Z,53.70
2023-05-12T00:26:57.121Z,53.41
2023-05-12T00:27:57.127Z,53.79
2023-05-12T00:28:57.127Z,54.17
2023-05-12T00:29:57.108Z,53.99
2023-05-12T00:30:57.107Z,54.17
2023-05-12T00:31:57.221Z,54.46
2023-05-12T00:32:57.186Z,53.99
2023-05-12T00:33:57.105Z,54.27
2023-05-12T00:34:57.118Z,53.99
2023-05-12T00:35:57.115Z,54.17
2023-05-12T00:36:57.105Z,54.46
2023-05-12T00:37:57.102Z,54.08
2023-05-12T00:38:57.113Z,54.66
2023-05-12T00:39:57.104Z,54.85
2023-05-12T00:40:57.104Z,54.75
2023-05-12T00:41:57.110Z,54.46
2023-05-12T00:42:57.110Z,54.37
2023-05-12T00:43:57.118Z,54.66
2023-05-12T00:44:57.099Z,54.72
2023-05-12T00:45:57.182Z,54.15
2023-05-12T00:46:57.106Z,54.72
2023-05-12T00:47:57.159Z,54.15
2023-05-12T00:48:57.096Z,54.24
2023-05-12T00:49:57.104Z,54.44
2023-05-12T00:50:57.097Z,54.53
2023-05-12T00:51:57.099Z,54.72
2023-05-12T00:52:57.092Z,54.34
2023-05-12T00:53:57.094Z,54.24
2023-05-12T00:54:57.096Z,54.72
2023-05-12T00:55:57.147Z,54.63
2023-05-12T00:56:57.127Z,54.72
2023-05-12T00:57:57.109Z,54.34
2023-05-12T00:58:57.091Z,54.44
2023-05-12T00:59:57.100Z,54.91
2023-05-12T01:00:57.112Z,54.53
2023-05-12T01:01:57.093Z,54.79
2023-05-12T01:02:57.188Z,55.01
2023-05-12T01:03:57.099Z,55.01
2023-05-12T01:04:57.095Z,55.21
2023-05-12T01:05:57.093Z,55.30
2023-05-12T01:06:57.087Z,54.53
2023-05-12T01:08:04.316Z,54.72
2023-05-12T01:10:01.092Z,54.72
2023-05-12T01:11:01.073Z,54.60
2023-05-12T01:13:05.133Z,54.50
2023-05-12T01:14:05.094Z,55.11
2023-05-12T01:16:09.094Z,54.89
2023-05-12T01:17:09.143Z,54.99
2023-05-12T01:19:02.135Z,54.72
2023-05-12T01:20:02.018Z,55.01
2023-05-12T01:21:55.123Z,55.01
2023-05-12T01:22:55.134Z,55.46
2023-05-12T01:24:59.137Z,54.50
2023-05-12T01:25:59.111Z,54.60
2023-05-12T01:28:03.114Z,57.98
2023-05-12T01:29:03.121Z,58.62
2023-05-12T01:31:07.148Z,58.08
2023-05-12T01:32:07.111Z,57.41
2023-05-12T01:34:11.132Z,56.09
2023-05-12T01:35:11.125Z,56.00
2023-05-12T01:37:15.123Z,56.09
2023-05-12T01:38:15.137Z,56.19
2023-05-12T01:40:19.915Z,56.09
2023-05-12T01:41:19.302Z,56.19
2023-05-12T01:43:23.309Z,55.23
2023-05-12T01:44:23.292Z,54.46
2023-05-12T01:46:27.307Z,54.17
2023-05-12T01:47:27.337Z,53.99
2023-05-12T01:49:20.806Z,54.85
2023-05-12T01:50:20.551Z,55.71
2023-05-12T01:52:24.393Z,54.46
2023-05-12T01:53:24.358Z,55.13
2023-05-12T01:55:28.378Z,54.85
2023-05-12T01:56:28.359Z,54.27
2023-05-12T01:58:32.380Z,54.85
2023-05-12T01:59:32.405Z,54.94
2023-05-12T02:01:36.448Z,54.66
2023-05-12T02:02:36.438Z,53.41
2023-05-12T02:04:40.385Z,53.70
2023-05-12T02:05:40.366Z,54.75
2023-05-12T02:07:44.371Z,54.56
2023-05-12T02:08:44.379Z,55.23
2023-05-12T02:10:48.431Z,53.70
2023-05-12T02:11:48.355Z,54.08
2023-05-12T02:13:52.378Z,54.66
2023-05-12T02:14:52.371Z,54.56
2023-05-12T02:16:56.394Z,53.99
2023-05-12T02:17:56.429Z,54.27
2023-05-12T02:20:01.407Z,54.17
2023-05-12T02:21:01.385Z,54.08
2023-05-12T02:23:05.388Z,53.31
2023-05-12T02:24:05.388Z,54.08
2023-05-12T02:26:09.387Z,53.60
2023-05-12T02:27:09.434Z,53.60
2023-05-12T02:29:02.285Z,53.89
2023-05-12T02:30:02.282Z,54.27
2023-05-12T02:32:06.395Z,54.17
2023-05-12T02:33:06.350Z,54.08
2023-05-12T02:35:10.295Z,54.75
2023-05-12T02:36:10.263Z,54.37
2023-05-12T02:37:10.280Z,53.79
2023-05-12T02:38:10.269Z,54.75
2023-05-12T02:39:10.266Z,54.75
2023-05-12T02:40:10.263Z,54.85
2023-05-12T02:41:10.255Z,54.66
2023-05-12T02:42:10.266Z,54.66
2023-05-12T02:43:10.259Z,54.46
2023-05-12T02:44:10.268Z,54.66
2023-05-12T02:45:10.263Z,54.75
2023-05-12T02:46:10.312Z,54.66
2023-05-12T02:47:10.259Z,54.66
2023-05-12T02:48:10.314Z,54.94
2023-05-12T02:49:10.256Z,54.85
2023-05-12T02:50:10.272Z,54.66
2023-05-12T02:51:10.273Z,55.23
2023-05-12T02:52:10.254Z,54.46
2023-05-12T02:53:10.268Z,55.13
2023-05-12T02:54:10.253Z,54.56
2023-05-12T02:55:10.262Z,54.46
2023-05-12T02:56:10.265Z,54.66
2023-05-12T02:57:10.255Z,54.66
2023-05-12T02:58:10.265Z,54.75
2023-05-12T02:59:10.252Z,55.13
2023-05-12T03:00:10.255Z,54.75
2023-05-12T03:01:11.474Z,54.63
2023-05-12T03:02:10.546Z,54.15
2023-05-12T03:03:10.293Z,54.66
2023-05-12T03:04:10.267Z,54.66
2023-05-12T03:05:10.280Z,55.58
2023-05-12T03:06:10.253Z,55.40
2023-05-12T03:07:10.252Z,54.94
2023-05-12T03:08:10.256Z,54.34
2023-05-12T03:09:10.261Z,54.53
2023-05-12T03:10:10.268Z,55.11
2023-05-12T03:11:10.323Z,54.91
2023-05-12T03:12:10.305Z,54.72
2023-05-12T03:13:10.246Z,55.40
2023-05-12T03:14:10.271Z,55.30
2023-05-12T03:15:10.250Z,55.42
2023-05-12T03:16:10.242Z,54.85
2023-05-12T03:17:10.290Z,54.63
2023-05-12T03:18:10.265Z,54.72
2023-05-12T03:19:10.390Z,54.82
2023-05-12T03:20:10.335Z,55.21
2023-05-12T03:21:10.237Z,55.21
2023-05-12T03:22:10.243Z,55.30
2023-05-12T03:23:10.249Z,55.11
2023-05-12T03:24:10.237Z,54.53
2023-05-12T03:25:10.268Z,54.63
2023-05-12T03:26:10.265Z,54.91
2023-05-12T03:27:10.271Z,54.24
2023-05-12T03:28:10.242Z,55.30
2023-05-12T03:29:10.226Z,55.21
2023-05-12T03:30:10.235Z,55.40
2023-05-12T03:31:10.318Z,54.53
2023-05-12T03:32:10.224Z,55.21
2023-05-12T03:33:10.219Z,55.11
2023-05-12T03:34:10.222Z,55.30
2023-05-12T03:35:10.233Z,54.72
2023-05-12T03:36:10.257Z,55.46
2023-05-12T03:37:10.210Z,55.75
2023-05-12T03:38:10.232Z,55.97
2023-05-12T03:39:10.228Z,55.58
2023-05-12T03:40:10.226Z,55.78
2023-05-12T03:41:10.224Z,55.97
2023-05-12T03:42:10.222Z,55.68
2023-05-12T03:43:10.214Z,55.58
2023-05-12T03:44:10.233Z,55.97
2023-05-12T03:45:10.204Z,54.91
2023-05-12T03:46:10.270Z,55.30
2023-05-12T03:47:10.252Z,55.30
2023-05-12T03:48:10.262Z,55.58
2023-05-12T03:49:10.233Z,55.58
2023-05-12T03:50:10.228Z,55.21
2023-05-12T03:51:10.234Z,55.40
2023-05-12T03:52:10.235Z,55.40
2023-05-12T03:53:10.227Z,54.99
2023-05-12T03:54:10.210Z,55.11
2023-05-12T03:55:10.191Z,55.46
2023-05-12T03:56:10.205Z,55.18
2023-05-12T03:57:10.233Z,56.13
2023-05-12T03:58:10.203Z,55.94
2023-05-12T03:59:10.182Z,56.26
2023-05-12T04:00:10.710Z,55.68
2023-05-12T04:01:10.218Z,55.65
2023-05-12T04:02:10.193Z,55.78
2023-05-12T04:03:10.274Z,56.35
2023-05-12T04:04:10.233Z,56.16
2023-05-12T04:05:10.256Z,55.97
2023-05-12T04:06:10.180Z,55.78
2023-05-12T04:07:10.177Z,55.68
2023-05-12T04:08:10.185Z,55.11
2023-05-12T04:09:10.196Z,55.49
2023-05-12T04:10:10.184Z,54.82
2023-05-12T04:11:10.179Z,54.44
2023-05-12T04:12:10.164Z,54.91
2023-05-12T04:13:10.166Z,55.11
2023-05-12T04:14:10.190Z,55.18
2023-05-12T04:15:10.163Z,55.11
2023-05-12T04:16:10.231Z,55.11
2023-05-12T04:17:10.167Z,55.56
2023-05-12T04:18:10.171Z,55.08
2023-05-12T04:19:10.242Z,55.49
2023-05-12T04:20:10.191Z,55.08
2023-05-12T04:21:10.166Z,56.04
2023-05-12T04:22:10.156Z,56.04
2023-05-12T04:23:10.161Z,56.13
2023-05-12T04:24:10.184Z,55.85
2023-05-12T04:25:10.175Z,56.71
2023-05-12T04:26:10.171Z,55.75
2023-05-12T04:27:10.212Z,55.58
2023-05-12T04:28:12.046Z,56.07
2023-05-12T04:29:10.144Z,55.18
2023-05-12T04:30:10.164Z,55.49
2023-05-12T04:31:10.156Z,55.85
2023-05-12T04:32:10.239Z,56.07
2023-05-12T04:33:10.323Z,55.78
2023-05-12T04:34:10.144Z,56.26
2023-05-12T04:35:10.148Z,56.23
2023-05-12T04:36:10.151Z,56.54
2023-05-12T04:37:10.146Z,56.16
2023-05-12T04:38:10.178Z,55.78
2023-05-12T04:39:10.146Z,55.78
2023-05-12T04:40:10.148Z,56.16
2023-05-12T04:41:10.149Z,56.26
2023-05-12T04:42:10.154Z,55.58
2023-05-12T04:44:00.000Z,55.49
2023-05-12T04:44:10.144Z,55.11
2023-05-12T04:45:10.142Z,55.78
2023-05-12T04:46:10.177Z,55.11
2023-05-12T04:47:10.130Z,54.82
2023-05-12T04:48:10.152Z,55.18
2023-05-12T04:49:10.148Z,55.85
2023-05-12T04:50:10.145Z,55.75
2023-05-12T04:51:10.158Z,55.36
2023-05-12T04:52:10.164Z,54.32
2023-05-12T04:53:11.392Z,55.27
2023-05-12T04:54:10.142Z,55.85
2023-05-12T04:55:10.157Z,55.85
2023-05-12T04:56:10.134Z,56.13
2023-05-12T04:57:10.127Z,55.65
2023-05-12T04:58:10.129Z,55.94
2023-05-12T04:59:10.125Z,56.23
2023-05-12T05:00:10.152Z,56.42
2023-05-12T05:01:10.162Z,56.04
2023-05-12T05:02:10.193Z,55.46
2023-05-12T05:03:10.264Z,55.65
2023-05-12T05:04:10.162Z,55.08
2023-05-12T05:05:10.143Z,55.87
2023-05-12T05:06:10.307Z,56.16
2023-05-12T05:07:10.133Z,55.18
2023-05-12T05:08:10.104Z,56.07
2023-05-12T05:09:10.156Z,55.68
2023-05-12T05:10:10.195Z,55.30
2023-05-12T05:11:10.187Z,55.78
2023-05-12T05:12:10.234Z,55.78
2023-05-12T05:13:10.153Z,55.40
2023-05-12T05:14:10.188Z,55.11
2023-05-12T05:15:10.145Z,55.21
2023-05-12T05:16:10.169Z,55.11
2023-05-12T05:17:10.727Z,55.78
2023-05-12T05:18:10.175Z,55.30
2023-05-12T05:19:19.557Z,54.63
2023-05-12T05:20:12.386Z,54.53
2023-05-12T05:21:10.206Z,54.24
2023-05-12T05:22:10.142Z,54.53
2023-05-12T05:23:10.130Z,54.63
2023-05-12T05:24:10.117Z,54.82
2023-05-12T05:25:10.235Z,54.82
2023-05-12T05:26:10.154Z,54.91
2023-05-12T05:27:10.292Z,54.56
2023-05-12T05:28:10.195Z,54.56
2023-05-12T05:29:10.154Z,54.37
2023-05-12T05:30:10.132Z,53.70
2023-05-12T05:31:10.205Z,54.46
2023-05-12T05:32:10.120Z,54.85
2023-05-12T05:33:10.194Z,54.27
2023-05-12T05:34:10.181Z,53.99
2023-05-12T05:35:10.273Z,54.27
2023-05-12T05:36:10.110Z,54.11
2023-05-12T05:37:10.131Z,54.01
2023-05-12T05:38:10.167Z,53.63
2023-05-12T05:39:10.147Z,53.46
2023-05-12T05:40:10.153Z,52.89
2023-05-12T05:41:10.121Z,52.40
2023-05-12T05:42:10.132Z,52.50
2023-05-12T05:43:10.135Z,52.22
2023-05-12T05:44:10.132Z,52.12
2023-05-12T05:45:10.162Z,52.12
2023-05-12T05:46:10.146Z,52.14
2023-05-12T05:47:10.197Z,52.05
2023-05-12T05:48:10.217Z,50.63
2023-05-12T05:49:10.200Z,50.25
2023-05-12T05:50:10.193Z,50.44
2023-05-12T05:51:10.162Z,50.25
2023-05-12T05:52:10.172Z,49.96
2023-05-12T05:53:10.217Z,49.89
2023-05-12T05:54:10.198Z,49.31
2023-05-12T05:55:10.203Z,48.35
2023-05-12T05:56:10.211Z,49.02
2023-05-12T05:57:10.252Z,48.66
2023-05-12T05:58:10.285Z,48.85
2023-05-12T05:59:10.261Z,48.08
2023-05-12T06:00:10.279Z,47.99
2023-05-12T06:01:10.259Z,47.70
2023-05-12T06:02:10.305Z,47.82
2023-05-12T06:03:10.356Z,46.86
2023-05-12T06:04:10.368Z,46.38
2023-05-12T06:05:10.351Z,46.57
2023-05-12T06:06:10.346Z,46.38
2023-05-12T06:07:10.324Z,45.80
2023-05-12T06:08:10.345Z,45.90
2023-05-12T06:09:10.343Z,46.09
2023-05-12T06:10:10.361Z,45.53
2023-05-12T06:11:10.371Z,45.83
2023-05-12T06:12:10.380Z,46.59
2023-05-12T06:13:10.411Z,45.73
2023-05-12T06:14:10.430Z,44.48
2023-05-12T06:15:10.430Z,45.36
2023-05-12T06:16:10.463Z,44.69
2023-05-12T06:17:10.475Z,44.02
2023-05-12T06:18:10.516Z,44.40
2023-05-12T06:19:10.553Z,45.07
2023-05-12T06:20:10.494Z,44.40
2023-05-12T06:21:11.257Z,44.71
2023-05-12T06:22:10.502Z,44.52
2023-05-12T06:23:10.526Z,44.04
2023-05-12T06:24:10.567Z,44.23
2023-05-12T06:25:10.574Z,44.23
2023-05-12T06:26:10.577Z,44.06
2023-05-12T06:27:10.567Z,43.87
2023-05-12T06:28:10.593Z,42.42
2023-05-12T06:29:10.605Z,42.52
2023-05-12T06:30:10.614Z,42.80
2023-05-12T06:31:10.725Z,42.52
2023-05-12T06:32:10.804Z,42.52
2023-05-12T06:33:10.694Z,42.35
2023-05-12T06:34:10.724Z,42.73
2023-05-12T06:35:10.780Z,42.44
2023-05-12T06:36:10.712Z,42.05
2023-05-12T06:37:10.756Z,41.38
2023-05-12T06:38:10.740Z,42.05
2023-05-12T06:39:10.757Z,41.86
2023-05-12T06:40:10.779Z,42.05
2023-05-12T06:41:10.778Z,41.30
2023-05-12T06:42:10.786Z,41.40
2023-05-12T06:43:10.824Z,40.92
2023-05-12T06:44:10.823Z,40.92
2023-05-12T06:45:10.878Z,41.40
2023-05-12T06:46:10.863Z,41.02
2023-05-12T06:47:10.881Z,40.92
2023-05-12T06:48:10.892Z,40.34
2023-05-12T06:49:10.895Z,40.92
2023-05-12T06:50:10.918Z,40.82
2023-05-12T06:51:10.923Z,40.92
2023-05-12T06:52:11.024Z,40.72
2023-05-12T06:53:10.987Z,40.44
2023-05-12T06:54:10.955Z,40.15
2023-05-12T06:55:11.005Z,40.05
2023-05-12T06:56:10.995Z,40.17
2023-05-12T06:57:11.009Z,40.24
2023-05-12T06:58:11.020Z,40.36
2023-05-12T06:59:11.065Z,40.26
2023-05-12T07:00:11.071Z,39.87
2023-05-12T07:01:11.104Z,40.17
2023-05-12T07:02:11.088Z,40.17
2023-05-12T07:03:11.125Z,39.87
2023-05-12T07:04:11.328Z,39.78
2023-05-12T07:05:11.147Z,39.59
2023-05-12T07:06:11.219Z,39.49
2023-05-12T07:07:11.220Z,39.69
2023-05-12T07:08:11.221Z,39.20
2023-05-12T07:09:11.200Z,39.78
2023-05-12T07:10:11.206Z,39.69
2023-05-12T07:11:11.237Z,39.61
2023-05-12T07:12:11.230Z,39.39
2023-05-12T07:13:11.261Z,39.70
2023-05-12T07:14:11.301Z,39.49
2023-05-12T07:15:11.303Z,39.41
2023-05-12T07:16:11.341Z,39.51
2023-05-12T07:17:11.326Z,39.12
2023-05-12T07:18:11.398Z,38.93
2023-05-12T07:19:11.455Z,38.74
2023-05-12T07:20:11.682Z,38.64
2023-05-12T07:21:11.421Z,38.64
2023-05-12T07:22:11.385Z,38.74
2023-05-12T07:23:11.431Z,38.35
2023-05-12T07:24:11.418Z,38.35
2023-05-12T07:25:11.482Z,38.93
2023-05-12T07:26:11.453Z,39.32
2023-05-12T07:27:11.488Z,38.45
2023-05-12T07:28:11.499Z,38.83
2023-05-12T07:29:13.440Z,39.32
2023-05-12T07:30:11.521Z,39.12
2023-05-12T07:31:11.715Z,38.83
2023-05-12T07:32:11.550Z,38.83
2023-05-12T07:33:11.615Z,38.83
2023-05-12T07:34:11.594Z,38.74
2023-05-12T07:35:11.615Z,38.74
2023-05-12T07:36:11.624Z,38.45
2023-05-12T07:37:11.648Z,38.54
2023-05-12T07:38:11.653Z,39.14
2023-05-12T07:39:11.673Z,38.76
2023-05-12T07:40:11.681Z,38.46
2023-05-12T07:41:11.697Z,39.34
2023-05-12T07:42:11.714Z,38.18
2023-05-12T07:43:11.734Z,37.79
2023-05-12T07:44:11.790Z,37.02
2023-05-12T07:45:11.782Z,36.53
2023-05-12T07:46:11.796Z,37.30
2023-05-12T07:47:11.826Z,38.18
2023-05-12T07:48:11.875Z,37.30
2023-05-12T07:49:11.836Z,36.82
2023-05-12T07:50:11.857Z,37.40
2023-05-12T07:51:11.863Z,37.60
2023-05-12T07:52:11.915Z,37.98
2023-05-12T07:53:11.907Z,38.08
2023-05-12T07:54:11.919Z,37.79
2023-05-12T07:55:11.926Z,37.40
2023-05-12T07:56:11.942Z,37.60
2023-05-12T07:57:11.968Z,37.79
2023-05-12T07:58:11.981Z,37.60
2023-05-12T07:59:11.994Z,37.30
2023-05-12T08:00:12.014Z,36.44
2023-05-12T08:01:12.027Z,36.53
2023-05-12T08:02:12.085Z,37.60
2023-05-12T08:03:12.158Z,36.24
2023-05-12T08:04:12.180Z,36.34
2023-05-12T08:05:12.079Z,37.12
2023-05-12T08:06:12.098Z,36.44
2023-05-12T08:07:12.123Z,36.24
2023-05-12T08:08:12.237Z,35.66
2023-05-12T08:09:12.210Z,35.37
2023-05-12T08:10:12.256Z,36.15
2023-05-12T08:11:12.257Z,35.57
2023-05-12T08:12:12.222Z,35.66
2023-05-12T08:13:12.216Z,35.28
2023-05-12T08:14:12.238Z,35.76
2023-05-12T08:15:12.239Z,35.47
2023-05-12T08:16:12.251Z,35.47
2023-05-12T08:17:12.334Z,35.28
2023-05-12T08:18:12.316Z,34.99
2023-05-12T08:19:12.341Z,34.70
2023-05-12T08:20:12.337Z,34.99
2023-05-12T08:21:12.315Z,34.50
2023-05-12T08:22:12.357Z,34.60
2023-05-12T08:23:12.326Z,34.21
2023-05-12T08:24:12.404Z,34.02
2023-05-12T08:25:12.774Z,34.58
2023-05-12T08:26:12.358Z,34.78
2023-05-12T08:27:12.387Z,34.68
2023-05-12T08:28:12.419Z,35.16
2023-05-12T08:29:12.389Z,34.87
2023-05-12T08:30:12.376Z,34.58
2023-05-12T08:31:12.476Z,34.10
2023-05-12T08:32:12.410Z,34.00
2023-05-12T08:33:12.482Z,35.45
2023-05-12T08:34:12.441Z,34.97
2023-05-12T08:35:12.430Z,34.87
2023-05-12T08:36:12.447Z,34.10
2023-05-12T08:37:12.466Z,34.00
2023-05-12T08:38:12.450Z,33.15
2023-05-12T08:39:12.492Z,33.23
2023-05-12T08:40:12.490Z,32.94
2023-05-12T08:41:12.542Z,32.36
2023-05-12T08:42:12.511Z,32.17
2023-05-12T08:43:13.424Z,32.26
2023-05-12T08:44:12.562Z,32.75
2023-05-12T08:45:12.620Z,32.26
2023-05-12T08:46:12.598Z,32.65
2023-05-12T08:47:12.538Z,33.42
2023-05-12T08:48:12.547Z,31.49
2023-05-12T08:49:12.591Z,32.65
2023-05-12T08:50:12.548Z,34.20
2023-05-12T08:51:13.394Z,33.91
2023-05-12T08:52:12.544Z,32.76
2023-05-12T08:53:12.550Z,33.05
2023-05-12T08:54:12.594Z,33.25
2023-05-12T08:55:12.610Z,31.99
2023-05-12T08:57:12.567Z,31.59
2023-05-12T08:58:12.558Z,32.36
2023-05-12T08:59:12.566Z,32.17
2023-05-12T09:00:12.609Z,32.46
2023-05-12T09:01:12.751Z,32.75
2023-05-12T09:02:12.623Z,32.94
2023-05-12T09:03:12.618Z,33.52
2023-05-12T09:04:12.706Z,34.39
2023-05-12T09:05:12.645Z,33.23
2023-05-12T09:06:12.670Z,33.14
2023-05-12T09:07:12.610Z,33.81
2023-05-12T09:08:12.612Z,33.52
2023-05-12T09:09:12.646Z,32.94
2023-05-12T09:10:22.460Z,32.56
2023-05-12T09:11:12.641Z,32.94
2023-05-12T09:12:14.020Z,32.65
2023-05-12T09:13:12.664Z,31.59
2023-05-12T09:14:12.655Z,32.36
2023-05-12T09:15:12.686Z,32.26
2023-05-12T09:16:12.690Z,32.26
2023-05-12T09:17:12.686Z,31.59
2023-05-12T09:18:12.691Z,30.91
2023-05-12T09:19:12.731Z,31.10
2023-05-12T09:20:23.906Z,30.90
2023-05-12T09:21:12.697Z,31.10
2023-05-12T09:22:12.707Z,32.34
2023-05-12T09:23:12.702Z,31.76
2023-05-12T09:24:12.715Z,31.28
2023-05-12T09:25:14.585Z,31.67
2023-05-12T09:26:12.732Z,32.34
2023-05-12T09:27:12.737Z,32.24
2023-05-12T09:28:12.777Z,31.76
2023-05-12T09:29:18.271Z,31.48
2023-05-12T09:30:12.768Z,31.18
2023-05-12T09:31:14.640Z,31.28
2023-05-12T09:32:12.836Z,31.48
2023-05-12T09:33:12.834Z,31.18
2023-05-12T09:34:12.754Z,31.67
2023-05-12T09:35:12.770Z,32.23
2023-05-12T09:36:12.775Z,31.28
2023-05-12T09:37:15.209Z,30.79
2023-05-12T09:38:12.798Z,31.27
2023-05-12T09:39:12.816Z,31.46
2023-05-12T09:40:12.955Z,32.62
2023-05-12T09:41:12.779Z,31.27
2023-05-12T09:42:12.826Z,32.15
2023-05-12T09:43:15.266Z,32.71
2023-05-12T09:44:12.827Z,32.15
2023-05-12T09:45:12.799Z,31.67
2023-05-12T09:46:12.883Z,31.67
2023-05-12T09:47:12.822Z,31.76
2023-05-12T09:48:12.815Z,31.57
2023-05-12T09:49:12.828Z,31.37
2023-05-12T09:50:12.836Z,31.17
2023-05-12T09:51:12.821Z,31.27
2023-05-12T09:52:12.830Z,30.79
2023-05-12T09:53:12.861Z,30.88
2023-05-12T09:54:12.828Z,31.27
2023-05-12T09:55:12.889Z,31.94
2023-05-12T09:56:12.846Z,33.58
2023-05-12T09:57:12.860Z,31.94
2023-05-12T09:58:12.861Z,31.37
2023-05-12T09:59:12.848Z,32.33
2023-05-12T10:00:29.776Z,32.33
2023-05-12T10:01:22.619Z,32.14
2023-05-12T10:02:12.872Z,31.75
2023-05-12T10:03:12.883Z,31.37
2023-05-12T10:04:12.905Z,31.17
2023-05-12T10:05:13.093Z,31.37
2023-05-12T10:06:12.914Z,31.17
2023-05-12T10:07:12.895Z,31.37
2023-05-12T10:08:12.909Z,31.46
2023-05-12T10:09:12.901Z,31.75
2023-05-12T10:10:12.907Z,31.27
2023-05-12T10:11:12.891Z,30.88
2023-05-12T10:12:12.906Z,31.07
2023-05-12T10:13:12.915Z,31.35
2023-05-12T10:14:12.903Z,31.37
2023-05-12T10:15:12.917Z,30.96
2023-05-12T10:16:13.134Z,31.06
2023-05-12T10:17:12.985Z,31.56
2023-05-12T10:18:12.982Z,31.15
2023-05-12T10:19:12.960Z,31.65
2023-05-12T10:20:12.940Z,31.45
2023-05-12T10:21:12.955Z,31.15
2023-05-12T10:22:12.941Z,31.73
2023-05-12T10:23:12.947Z,31.54
2023-05-12T10:24:12.954Z,31.35
2023-05-12T10:25:12.971Z,31.45
2023-05-12T10:26:12.972Z,31.45
2023-05-12T10:27:12.967Z,31.73
2023-05-12T10:28:12.952Z,32.31
2023-05-12T10:29:12.992Z,32.70
2023-05-12T10:30:12.970Z,32.31
2023-05-12T10:31:13.033Z,32.21
2023-05-12T10:32:12.993Z,32.70
2023-05-12T10:33:12.984Z,32.70
2023-05-12T10:34:13.017Z,32.21
2023-05-12T10:35:12.998Z,32.51
2023-05-12T10:36:12.996Z,32.70
2023-05-12T10:37:13.006Z,32.60
2023-05-12T10:38:13.006Z,32.99
2023-05-12T10:39:13.014Z,33.28
2023-05-12T10:40:13.015Z,33.47
2023-05-12T10:41:13.034Z,33.76
2023-05-12T10:42:13.021Z,33.47
2023-05-12T10:43:13.039Z,33.37
2023-05-12T10:44:13.046Z,33.66
2023-05-12T10:45:13.060Z,33.66
2023-05-12T10:46:13.072Z,33.37
2023-05-12T10:47:13.331Z,33.28
2023-05-12T10:48:13.093Z,33.57
2023-05-12T10:49:13.061Z,33.57
2023-05-12T10:50:13.045Z,33.86
2023-05-12T10:51:13.045Z,34.14
2023-05-12T10:52:13.090Z,34.92
2023-05-12T10:53:13.054Z,34.14
2023-05-12T10:54:15.000Z,33.95
2023-05-12T10:55:13.141Z,33.95
2023-05-12T10:56:13.390Z,34.14
2023-05-12T10:57:16.021Z,34.14
2023-05-12T10:58:13.419Z,34.34
2023-05-12T10:59:13.910Z,34.53
2023-05-12T11:00:13.536Z,34.34
2023-05-12T11:01:13.537Z,34.34
2023-05-12T11:02:13.650Z,34.53
2023-05-12T11:03:13.372Z,34.53
2023-05-12T11:04:13.436Z,33.95
2023-05-12T11:05:13.619Z,33.36
2023-05-12T11:06:13.884Z,33.26
2023-05-12T11:07:14.031Z,33.07
2023-05-12T11:08:14.235Z,33.26
2023-05-12T11:09:13.568Z,33.74
2023-05-12T11:10:13.466Z,33.84
2023-05-12T11:11:13.674Z,33.09
2023-05-12T11:12:13.127Z,33.07
2023-05-12T11:13:13.135Z,33.26
2023-05-12T11:14:13.152Z,33.36
2023-05-12T11:15:13.155Z,33.45
2023-05-12T11:16:13.223Z,33.84
2023-05-12T11:17:13.128Z,34.22
2023-05-12T11:18:13.229Z,34.32
2023-05-12T11:19:13.284Z,33.94
2023-05-12T11:20:13.198Z,34.22
2023-05-12T11:21:13.173Z,34.13
2023-05-12T11:22:13.177Z,33.74
2023-05-12T11:23:13.156Z,34.03
2023-05-12T11:24:13.184Z,34.52
2023-05-12T11:25:13.193Z,34.61
2023-05-12T11:26:13.174Z,34.22
2023-05-12T11:27:13.181Z,34.22
2023-05-12T11:28:13.199Z,34.42
2023-05-12T11:29:13.209Z,34.52
2023-05-12T11:30:13.222Z,34.61
2023-05-12T11:31:13.212Z,34.03
2023-05-12T11:32:13.205Z,34.32
2023-05-12T11:33:13.236Z,34.52
2023-05-12T11:34:13.730Z,34.52
2023-05-12T11:35:13.209Z,33.65
2023-05-12T11:36:13.482Z,33.36
2023-05-12T11:37:13.219Z,33.84
2023-05-12T11:38:13.209Z,33.92
2023-05-12T11:39:13.211Z,34.01
2023-05-12T11:40:13.242Z,34.11
2023-05-12T11:41:13.219Z,33.92
2023-05-12T11:42:14.259Z,34.11
2023-05-12T11:43:13.316Z,34.01
2023-05-12T11:44:13.237Z,34.11
2023-05-12T11:45:13.230Z,34.40
2023-05-12T11:46:13.315Z,33.92
2023-05-12T11:47:13.245Z,34.21
2023-05-12T11:48:13.298Z,34.50
2023-05-12T11:49:13.240Z,34.50
2023-05-12T11:50:13.377Z,33.92
2023-05-12T11:51:13.251Z,34.01
2023-05-12T11:52:13.292Z,34.30
2023-05-12T11:53:13.252Z,33.73
2023-05-12T11:54:13.256Z,33.92
2023-05-12T11:55:13.272Z,33.92
2023-05-12T11:56:13.275Z,33.44
2023-05-12T11:57:13.293Z,33.53
2023-05-12T11:58:13.281Z,33.82
2023-05-12T11:59:13.274Z,33.65
2023-05-12T12:00:13.355Z,32.68
2023-05-12T12:01:13.287Z,32.59
2023-05-12T12:02:13.348Z,32.86
2023-05-12T12:03:13.479Z,32.78
2023-05-12T12:04:13.321Z,32.78
2023-05-12T12:05:13.290Z,32.49
2023-05-12T12:06:13.310Z,32.78
2023-05-12T12:07:13.330Z,32.87
2023-05-12T12:08:13.358Z,32.78
2023-05-12T12:09:13.303Z,32.29
2023-05-12T12:10:13.308Z,32.20
2023-05-12T12:11:13.337Z,32.20
2023-05-12T12:12:13.316Z,32.29
2023-05-12T12:13:13.335Z,32.68
2023-05-12T12:14:13.325Z,32.68
2023-05-12T12:15:13.320Z,32.59
2023-05-12T12:16:14.852Z,32.39
2023-05-12T12:17:13.394Z,32.20
2023-05-12T12:18:13.425Z,32.29
2023-05-12T12:19:13.415Z,31.52
2023-05-12T12:20:13.374Z,31.24
2023-05-12T12:21:13.349Z,31.24
2023-05-12T12:22:13.362Z,31.62
2023-05-12T12:23:13.384Z,31.14
2023-05-12T12:24:13.370Z,30.85
2023-05-12T12:25:13.361Z,30.94
2023-05-12T12:26:13.371Z,30.76
2023-05-12T12:27:13.382Z,30.76
2023-05-12T12:28:13.418Z,30.94
2023-05-12T12:29:13.387Z,30.85
2023-05-12T12:30:13.407Z,30.76
2023-05-12T12:31:13.459Z,31.33
2023-05-12T12:32:13.412Z,31.52
2023-05-12T12:33:13.475Z,31.52
2023-05-12T12:34:13.424Z,31.62
2023-05-12T12:35:13.412Z,31.43
2023-05-12T12:36:13.392Z,31.33
2023-05-12T12:37:13.411Z,32.10
2023-05-12T12:38:13.418Z,32.39
2023-05-12T12:39:13.396Z,32.78
2023-05-12T12:40:13.428Z,33.26
2023-05-12T12:41:13.410Z,33.07
2023-05-12T12:42:13.417Z,32.78
2023-05-12T12:43:13.420Z,32.01
2023-05-12T12:44:13.433Z,31.72
2023-05-12T12:45:13.423Z,32.20
2023-05-12T12:46:13.432Z,32.20
2023-05-12T12:47:13.479Z,32.29
2023-05-12T12:48:13.454Z,32.20
2023-05-12T12:49:13.444Z,31.72
2023-05-12T12:50:13.448Z,31.72
2023-05-12T12:51:13.438Z,32.29
2023-05-12T12:52:13.470Z,32.20
2023-05-12T12:53:13.454Z,31.81
2023-05-12T12:54:13.447Z,32.29
2023-05-12T12:55:13.458Z,32.29
2023-05-12T12:56:13.476Z,32.29
2023-05-12T12:57:13.479Z,31.91
2023-05-12T12:58:13.470Z,32.01
2023-05-12T12:59:13.482Z,32.29
2023-05-12T13:00:13.497Z,32.29
2023-05-12T13:01:13.543Z,32.10
2023-05-12T13:02:13.523Z,32.41
2023-05-12T13:03:13.556Z,32.59
2023-05-12T13:04:13.506Z,32.97
2023-05-12T13:05:13.506Z,32.39
2023-05-12T13:06:13.484Z,32.49
2023-05-12T13:07:13.514Z,32.59
2023-05-12T13:08:13.503Z,32.20
2023-05-12T13:09:13.499Z,31.62
2023-05-12T13:10:13.526Z,31.62
2023-05-12T13:11:13.501Z,31.24
2023-05-12T13:12:13.519Z,31.24
2023-05-12T13:13:13.513Z,31.62
2023-05-12T13:14:13.525Z,31.52
2023-05-12T13:15:14.063Z,31.62
2023-05-12T13:16:13.585Z,31.52
2023-05-12T13:17:14.058Z,31.62
2023-05-12T13:18:13.688Z,31.24
2023-05-12T13:19:13.570Z,31.15
2023-05-12T13:20:13.553Z,31.43
2023-05-12T13:21:13.564Z,31.35
2023-05-12T13:22:13.541Z,31.33
2023-05-12T13:23:13.538Z,30.85
2023-05-12T13:24:13.559Z,31.06